createdAt,value
2023-03-21T00:01:52.899Z,23.17
2023-03-21T00:04:20.765Z,12.27
2023-03-21T00:06:47.668Z,15.50
2023-03-21T00:09:14.589Z,12.20
2023-03-21T00:11:41.676Z,12.20
2023-03-21T00:14:09.034Z,17.93
2023-03-21T00:16:36.671Z,14.43
2023-03-21T00:19:06.470Z,13.07
2023-03-21T00:21:59.270Z,10.70
2023-03-21T00:24:25.539Z,25.67
2023-03-21T00:26:53.017Z,22.30
2023-03-21T00:29:20.026Z,10.07
2023-03-21T00:31:47.004Z,14.90
2023-03-21T00:34:14.007Z,8.70
2023-03-21T00:36:41.052Z,20.83
2023-03-21T00:39:08.027Z,11.77
2023-03-21T00:41:42.480Z,18.23
2023-03-21T00:44:13.954Z,12.40
2023-03-21T00:46:54.181Z,19.60
2023-03-21T00:49:27.890Z,17.83
2023-03-21T00:51:57.257Z,10.80
2023-03-21T00:54:24.440Z,18.87
2023-03-21T00:56:51.485Z,20.33
2023-03-21T00:59:18.657Z,16.70
2023-03-21T01:01:46.699Z,17.77
2023-03-21T01:04:16.721Z,12.50
2023-03-21T01:06:44.645Z,25.67
2023-03-21T01:09:17.584Z,17.67
2023-03-21T01:11:45.275Z,9.97
2023-03-21T01:14:28.596Z,11.40
2023-03-21T01:16:55.457Z,14.20
2023-03-21T01:19:40.641Z,15.57
2023-03-21T01:22:13.965Z,16.67
2023-03-21T01:24:52.382Z,16.33
2023-03-21T01:27:22.298Z,23.40
2023-03-21T01:29:49.199Z,15.53
2023-03-21T01:32:16.829Z,11.70
2023-03-21T01:34:43.698Z,15.73
2023-03-21T01:37:10.601Z,17.53
2023-03-21T01:39:37.502Z,11.50
2023-03-21T01:42:04.532Z,17.50
2023-03-21T01:44:31.790Z,15.83
2023-03-21T01:47:10.512Z,13.80
2023-03-21T01:49:48.606Z,14.23
2023-03-21T01:52:36.004Z,13.07
2023-03-21T01:55:07.295Z,16.87
2023-03-21T01:57:51.845Z,12.47
2023-03-21T02:00:25.852Z,13.63
2023-03-21T02:02:58.248Z,19.23
2023-03-21T02:05:44.033Z,19.23
2023-03-21T02:08:11.013Z,14.67
2023-03-21T02:10:37.986Z,19.80
2023-03-21T02:13:09.724Z,10.37
2023-03-21T02:15:39.130Z,13.53
2023-03-21T02:18:21.637Z,13.90
2023-03-21T02:21:40.528Z,12.80
2023-03-21T02:24:48.954Z,16.60
2023-03-21T02:27:23.981Z,16.50
2023-03-21T02:30:52.128Z,18.83
2023-03-21T02:33:28.902Z,21.90
2023-03-21T02:36:48.493Z,19.50
2023-03-21T02:39:33.801Z,15.00
2023-03-21T02:42:25.642Z,16.37
2023-03-21T02:45:20.458Z,14.97
2023-03-21T02:47:52.769Z,12.73
2023-03-21T02:50:46.355Z,16.67
2023-03-21T02:53:16.770Z,17.43
2023-03-21T02:55:45.747Z,13.90
2023-03-21T02:58:17.426Z,16.27
2023-03-21T03:00:45.107Z,10.00
2023-03-21T03:03:24.874Z,20.20
2023-03-21T03:06:00.345Z,17.57
2023-03-21T03:09:03.209Z,9.77
2023-03-21T03:11:45.491Z,26.50
2023-03-21T03:15:02.158Z,14.70
2023-03-21T03:18:13.926Z,16.37
2023-03-21T03:21:10.788Z,21.70
2023-03-21T03:24:30.292Z,14.43
2023-03-21T03:27:19.853Z,20.63
2023-03-21T03:29:49.547Z,26.90
2023-03-21T03:32:38.004Z,22.90
2023-03-21T03:35:07.169Z,23.33
2023-03-21T03:37:37.948Z,22.63
2023-03-21T03:40:17.212Z,15.93
2023-03-21T03:42:52.628Z,33.43
2023-03-21T03:45:23.882Z,21.73
2023-03-21T03:47:57.365Z,17.93
2023-03-21T03:50:48.357Z,22.13
2023-03-21T03:53:43.225Z,20.93
2023-03-21T03:56:11.682Z,22.23
2023-03-21T03:58:45.754Z,20.33
2023-03-21T04:01:14.187Z,11.43
2023-03-21T04:03:50.980Z,17.27
2023-03-21T04:06:20.238Z,13.00
2023-03-21T04:08:47.164Z,28.63
2023-03-21T04:11:16.052Z,15.20
2023-03-21T04:13:43.035Z,18.57
2023-03-21T04:16:11.846Z,27.27
2023-03-21T04:18:42.069Z,19.37
2023-03-21T04:21:13.449Z,20.40
2023-03-21T04:23:41.450Z,21.17
2023-03-21T04:26:08.977Z,22.70
2023-03-21T04:28:37.144Z,19.80
2023-03-21T04:31:24.174Z,19.33
2023-03-21T04:33:52.388Z,17.63
2023-03-21T04:36:30.715Z,28.13
2023-03-21T04:39:01.664Z,20.80
2023-03-21T04:41:29.134Z,17.87
2023-03-21T04:43:56.582Z,27.40
2023-03-21T04:46:24.018Z,23.93
2023-03-21T04:48:50.932Z,14.57
2023-03-21T04:51:17.827Z,15.50
2023-03-21T04:53:49.323Z,20.43
2023-03-21T04:56:16.515Z,19.13
2023-03-21T04:58:43.596Z,21.90
2023-03-21T05:01:10.549Z,16.97
2023-03-21T05:03:40.445Z,18.57
2023-03-21T05:06:09.322Z,26.50
2023-03-21T05:08:36.905Z,21.47
2023-03-21T05:11:04.754Z,14.20
2023-03-21T05:13:31.747Z,25.50
2023-03-21T05:15:58.642Z,20.83
2023-03-21T05:18:26.208Z,17.90
2023-03-21T05:20:55.277Z,17.00
2023-03-21T05:23:22.950Z,24.37
2023-03-21T05:25:51.215Z,16.77
2023-03-21T05:28:21.122Z,28.23
2023-03-21T05:30:48.138Z,21.13
2023-03-21T05:33:15.066Z,19.73
2023-03-21T05:35:41.989Z,21.53
2023-03-21T05:38:08.928Z,24.03
2023-03-21T05:40:35.770Z,16.93
2023-03-21T05:43:02.634Z,22.27
2023-03-21T05:45:29.501Z,28.23
2023-03-21T05:47:56.406Z,21.07
2023-03-21T05:50:23.397Z,25.70
2023-03-21T05:52:50.378Z,25.13
2023-03-21T05:55:17.353Z,17.67
2023-03-21T05:57:44.239Z,19.57
2023-03-21T06:00:12.137Z,24.70
2023-03-21T06:02:40.004Z,20.80
2023-03-21T06:05:07.618Z,18.03
2023-03-21T06:07:35.589Z,19.10
2023-03-21T06:10:03.102Z,19.83
2023-03-21T06:12:30.655Z,24.20
2023-03-21T06:14:57.556Z,14.63
2023-03-21T06:17:24.522Z,26.20
2023-03-21T06:19:52.052Z,30.43
2023-03-21T06:22:18.914Z,17.70
2023-03-21T06:24:45.960Z,23.53
2023-03-21T06:27:12.833Z,15.73
2023-03-21T06:29:39.645Z,22.70
2023-03-21T06:32:07.662Z,21.03
2023-03-21T06:34:34.504Z,21.53
2023-03-21T06:37:02.114Z,24.67
2023-03-21T06:39:28.966Z,14.47
2023-03-21T06:41:55.805Z,23.77
2023-03-21T06:44:22.800Z,14.33
2023-03-21T06:46:49.731Z,22.77
2023-03-21T06:49:17.081Z,18.20
2023-03-21T06:51:44.066Z,19.50
2023-03-21T06:54:11.220Z,14.17
2023-03-21T06:56:38.217Z,15.17
2023-03-21T06:59:05.131Z,22.20
2023-03-21T07:01:32.020Z,19.87
2023-03-21T07:03:59.608Z,17.87
2023-03-21T07:06:27.027Z,17.83
2023-03-21T07:08:54.943Z,20.60
2023-03-21T07:11:23.217Z,23.27
2023-03-21T07:13:50.629Z,23.07
2023-03-21T07:16:18.875Z,12.93
2023-03-21T07:18:46.625Z,17.23
2023-03-21T07:21:14.028Z,17.67
2023-03-21T07:23:41.418Z,21.90
2023-03-21T07:26:08.559Z,12.30
2023-03-21T07:28:36.101Z,14.83
2023-03-21T07:31:05.866Z,16.87
2023-03-21T07:33:33.514Z,17.47
2023-03-21T07:36:00.745Z,22.07
2023-03-21T07:38:27.805Z,22.07
2023-03-21T07:40:54.674Z,17.87
2023-03-21T07:43:21.648Z,17.20
2023-03-21T07:45:48.650Z,13.50
2023-03-21T07:48:17.537Z,23.50
2023-03-21T07:50:44.456Z,17.53
2023-03-21T07:53:11.289Z,15.80
2023-03-21T07:55:38.409Z,22.93
2023-03-21T07:58:05.840Z,20.57
2023-03-21T08:00:33.577Z,22.90
2023-03-21T08:03:00.613Z,17.83
2023-03-21T08:05:34.822Z,20.10
2023-03-21T08:08:02.251Z,17.00
2023-03-21T08:10:29.608Z,22.03
2023-03-21T08:12:56.485Z,19.77
2023-03-21T08:15:23.476Z,16.97
2023-03-21T08:17:50.322Z,18.53
2023-03-21T08:20:21.386Z,19.80
2023-03-21T08:22:49.490Z,23.20
2023-03-21T08:25:18.448Z,28.77
2023-03-21T08:27:46.815Z,19.80
2023-03-21T08:30:16.680Z,14.37
2023-03-21T08:32:43.877Z,16.17
2023-03-21T08:35:13.711Z,15.87
2023-03-21T08:37:43.845Z,18.80
2023-03-21T08:40:19.025Z,18.30
2023-03-21T08:42:47.231Z,20.83
2023-03-21T08:45:16.813Z,15.43
2023-03-21T08:47:43.960Z,15.20
2023-03-21T08:50:14.674Z,15.80
2023-03-21T08:52:41.685Z,16.77
2023-03-21T08:55:09.300Z,17.30
2023-03-21T08:57:36.297Z,14.80
2023-03-21T09:00:14.678Z,14.03
2023-03-21T09:02:42.363Z,23.13
2023-03-21T09:05:12.101Z,12.87
2023-03-21T09:07:40.602Z,25.37
2023-03-21T09:10:25.832Z,15.30
2023-03-21T09:12:54.648Z,15.83
2023-03-21T09:15:24.643Z,18.10
2023-03-21T09:17:58.896Z,11.90
2023-03-21T09:20:31.323Z,23.30
2023-03-21T09:22:59.250Z,17.13
2023-03-21T09:25:31.315Z,18.23
2023-03-21T09:28:00.391Z,13.33
2023-03-21T09:30:27.713Z,17.43
2023-03-21T09:32:56.015Z,22.60
2023-03-21T09:35:24.392Z,16.83
2023-03-21T09:37:51.404Z,10.77
2023-03-21T09:40:27.477Z,11.00
2023-03-21T09:43:35.832Z,17.80
2023-03-21T09:46:25.259Z,12.87
2023-03-21T09:49:20.522Z,9.47
2023-03-21T09:51:52.903Z,16.23
2023-03-21T09:54:28.122Z,12.60
2023-03-21T09:56:59.396Z,13.83
2023-03-21T09:59:42.053Z,14.83
2023-03-21T10:02:36.025Z,9.43
2023-03-21T10:05:12.066Z,16.60
2023-03-21T10:07:44.626Z,19.07
2023-03-21T10:10:23.244Z,13.93
2023-03-21T10:12:52.831Z,9.00
2023-03-21T10:15:22.657Z,12.80
2023-03-21T10:17:56.716Z,13.67
2023-03-21T10:20:26.978Z,19.57
2023-03-21T10:22:56.634Z,10.87
2023-03-21T10:25:34.563Z,11.00
2023-03-21T10:28:03.381Z,14.13
2023-03-21T10:30:52.683Z,16.50
2023-03-21T10:33:25.941Z,11.47
2023-03-21T10:35:57.390Z,18.37
2023-03-21T10:38:26.534Z,17.40
2023-03-21T10:40:54.259Z,18.40
2023-03-21T10:43:31.438Z,21.37
2023-03-21T10:45:58.440Z,32.90
2023-03-21T10:48:25.738Z,18.13
2023-03-21T10:50:55.072Z,15.47
2023-03-21T10:53:32.105Z,15.50
2023-03-21T10:56:06.555Z,21.10
2023-03-21T10:58:39.072Z,15.43
2023-03-21T11:01:10.142Z,15.63
2023-03-21T11:03:43.725Z,24.13
2023-03-21T11:06:22.800Z,12.63
2023-03-21T11:08:55.490Z,28.47
2023-03-21T11:11:28.214Z,21.03
2023-03-21T11:14:01.197Z,23.77
2023-03-21T11:16:58.887Z,26.23
2023-03-21T11:19:33.400Z,17.43
2023-03-21T11:22:07.101Z,15.70
2023-03-21T11:24:35.794Z,7.33
2023-03-21T11:27:07.897Z,8.07
2023-03-21T11:29:49.493Z,11.57
2023-03-21T11:32:27.011Z,8.33
2023-03-21T11:35:21.913Z,6.30
2023-03-21T11:37:56.690Z,13.67
2023-03-21T11:40:35.311Z,20.90
2023-03-21T11:43:38.648Z,18.93
2023-03-21T11:46:13.065Z,14.13
2023-03-21T11:48:50.338Z,24.10
2023-03-21T11:51:56.001Z,8.77
2023-03-21T11:54:35.315Z,4.73
2023-03-21T11:57:43.888Z,8.07
2023-03-21T12:00:28.256Z,12.37
2023-03-21T12:03:47.799Z,13.30
2023-03-21T12:06:44.798Z,20.40
2023-03-21T12:09:23.017Z,12.70
2023-03-21T12:12:13.808Z,22.33
2023-03-21T12:15:06.703Z,20.53
2023-03-21T12:18:17.903Z,12.87
2023-03-21T12:20:59.930Z,9.93
2023-03-21T12:23:58.040Z,25.40
2023-03-21T12:26:57.531Z,12.63
2023-03-21T12:30:01.057Z,9.93
2023-03-21T12:33:01.729Z,11.40
2023-03-21T12:35:41.772Z,9.20
2023-03-21T12:38:59.374Z,6.93
2023-03-21T12:41:33.793Z,12.03
2023-03-21T12:44:10.499Z,26.83
2023-03-21T12:47:02.461Z,16.90
2023-03-21T12:49:38.598Z,6.10
2023-03-21T12:52:12.886Z,7.33
2023-03-21T12:55:00.866Z,6.07
2023-03-21T12:57:57.403Z,8.97
2023-03-21T13:00:43.598Z,7.67
2023-03-21T13:03:27.725Z,8.40
2023-03-21T13:06:05.832Z,5.20
2023-03-21T13:09:08.954Z,8.03
2023-03-21T13:11:36.437Z,3.20
2023-03-21T13:14:36.319Z,7.53
2023-03-21T13:17:30.834Z,4.30
2023-03-21T13:20:35.850Z,3.93
2023-03-21T13:23:03.853Z,7.70
2023-03-21T13:25:33.352Z,2.63
2023-03-21T13:28:05.421Z,5.87
2023-03-21T13:30:33.037Z,2.70
2023-03-21T13:33:11.742Z,2.57
2023-03-21T13:35:42.537Z,2.67
2023-03-21T13:38:22.857Z,4.47
2023-03-21T13:41:00.877Z,3.70
2023-03-21T13:44:05.498Z,3.13
2023-03-21T13:46:53.462Z,5.73
2023-03-21T13:49:38.109Z,3.40
2023-03-21T13:52:31.163Z,2.47
2023-03-21T13:54:58.111Z,2.67
2023-03-21T13:57:46.711Z,3.07
2023-03-21T14:00:33.258Z,6.47
2023-03-21T14:03:06.540Z,2.77
2023-03-21T14:05:35.449Z,2.70
2023-03-21T14:08:17.265Z,2.23
2023-03-21T14:10:58.285Z,2.23
2023-03-21T14:13:26.932Z,3.00
2023-03-21T14:15:59.944Z,5.33
2023-03-21T14:18:52.180Z,2.57
2023-03-21T14:21:24.792Z,3.13
2023-03-21T14:24:18.531Z,2.50
2023-03-21T14:26:51.325Z,5.23
2023-03-21T14:29:31.635Z,1.83
2023-03-21T14:32:00.395Z,2.90
2023-03-21T14:34:29.590Z,2.43
2023-03-21T14:36:58.950Z,5.63
2023-03-21T14:39:33.455Z,5.70
2023-03-21T14:42:13.757Z,3.47
2023-03-21T14:44:56.698Z,5.67
2023-03-21T14:47:28.998Z,2.33
2023-03-21T14:49:57.134Z,3.57
2023-03-21T14:52:27.703Z,5.20
2023-03-21T14:54:56.248Z,1.83
2023-03-21T14:57:30.547Z,4.83
2023-03-21T15:00:02.057Z,3.00
2023-03-21T15:02:34.610Z,3.27
2023-03-21T15:05:18.898Z,1.80
2023-03-21T15:08:03.672Z,3.10
2023-03-21T15:10:31.863Z,2.10
2023-03-21T15:13:01.990Z,1.83
2023-03-21T15:15:31.843Z,2.27
2023-03-21T15:18:04.085Z,7.90
2023-03-21T15:20:35.374Z,3.10
2023-03-21T15:23:07.242Z,2.23
2023-03-21T15:25:37.114Z,2.80
2023-03-21T15:28:06.219Z,2.77
2023-03-21T15:30:34.464Z,5.80
2023-03-21T15:33:10.360Z,5.43
2023-03-21T15:35:44.576Z,3.30
2023-03-21T15:38:29.984Z,2.30
2023-03-21T15:41:16.401Z,3.60
2023-03-21T15:43:44.103Z,2.83
2023-03-21T15:46:16.333Z,3.43
2023-03-21T15:48:44.205Z,2.87
2023-03-21T15:51:24.096Z,3.10
2023-03-21T15:53:54.317Z,2.13
2023-03-21T15:56:22.525Z,4.80
2023-03-21T15:58:52.711Z,3.63
2023-03-21T16:01:22.170Z,2.57
2023-03-21T16:04:02.783Z,2.83
2023-03-21T16:06:36.688Z,2.80
2023-03-21T16:09:14.246Z,5.17
2023-03-21T16:11:43.122Z,2.30
2023-03-21T16:14:10.218Z,4.60
2023-03-21T16:16:37.851Z,2.63
2023-03-21T16:19:07.247Z,3.00
2023-03-21T16:21:35.419Z,8.60
2023-03-21T16:24:02.311Z,3.47
2023-03-21T16:26:32.503Z,3.07
2023-03-21T16:29:00.240Z,2.53
2023-03-21T16:31:29.852Z,2.97
2023-03-21T16:33:57.059Z,4.20
2023-03-21T16:36:30.853Z,3.47
2023-03-21T16:38:58.010Z,3.13
2023-03-21T16:41:27.736Z,2.67
2023-03-21T16:43:54.700Z,5.17
2023-03-21T16:46:24.321Z,5.20
2023-03-21T16:48:53.990Z,4.10
2023-03-21T16:51:36.320Z,7.00
2023-03-21T16:54:03.421Z,5.83
2023-03-21T16:56:43.177Z,9.13
2023-03-21T16:59:13.185Z,4.50
2023-03-21T17:01:41.476Z,9.90
2023-03-21T17:04:09.106Z,4.77
2023-03-21T17:06:44.791Z,8.40
2023-03-21T17:09:13.921Z,3.47
2023-03-21T17:11:41.722Z,4.20
2023-03-21T17:14:10.604Z,3.70
2023-03-21T17:16:40.370Z,8.30
2023-03-21T17:19:26.354Z,4.17
2023-03-21T17:21:53.524Z,4.13
2023-03-21T17:24:20.396Z,5.40
2023-03-21T17:26:47.308Z,5.87
2023-03-21T17:29:15.477Z,8.63
2023-03-21T17:31:44.039Z,3.73
2023-03-21T17:34:11.292Z,5.33
2023-03-21T17:36:40.865Z,5.67
2023-03-21T17:39:12.884Z,4.10
2023-03-21T17:41:39.947Z,4.97
2023-03-21T17:44:07.027Z,4.90
2023-03-21T17:46:39.315Z,4.40
2023-03-21T17:49:06.884Z,6.97
2023-03-21T17:51:33.852Z,4.37
2023-03-21T17:54:01.363Z,3.60
2023-03-21T17:56:31.720Z,4.27
2023-03-21T17:59:01.305Z,5.10
2023-03-21T18:01:30.665Z,4.60
2023-03-21T18:03:58.707Z,4.07
2023-03-21T18:06:26.707Z,4.43
2023-03-21T18:08:54.628Z,6.80
2023-03-21T18:11:22.800Z,13.17
2023-03-21T18:13:50.153Z,8.50
2023-03-21T18:16:22.527Z,5.67
2023-03-21T18:18:51.032Z,3.63
2023-03-21T18:21:20.237Z,4.00
2023-03-21T18:23:47.711Z,7.70
2023-03-21T18:26:24.007Z,5.30
2023-03-21T18:29:43.967Z,5.10
2023-03-21T18:31:38.468Z,4.97
2023-03-21T18:34:05.490Z,9.60
2023-03-21T18:36:32.543Z,6.03
2023-03-21T18:38:59.519Z,4.40
2023-03-21T18:41:26.478Z,6.17
2023-03-21T18:44:05.864Z,5.57
2023-03-21T18:46:41.836Z,4.63
2023-03-21T18:49:51.934Z,4.63
2023-03-21T18:51:55.892Z,4.60
2023-03-21T18:54:23.548Z,3.97
2023-03-21T18:57:34.627Z,5.50
2023-03-21T18:59:41.462Z,7.73
2023-03-21T19:02:08.511Z,6.03
2023-03-21T19:04:37.536Z,7.10
2023-03-21T19:07:05.106Z,6.17
2023-03-21T19:09:58.125Z,4.73
2023-03-21T19:12:21.269Z,5.77
2023-03-21T19:14:48.162Z,4.47
2023-03-21T19:18:07.171Z,5.10
2023-03-21T19:20:03.398Z,6.20
2023-03-21T19:22:31.707Z,5.10
2023-03-21T19:24:59.851Z,4.93
2023-03-21T19:27:27.148Z,6.93
2023-03-21T19:30:10.693Z,6.77
2023-03-21T19:32:40.747Z,7.83
2023-03-21T19:35:08.158Z,5.63
2023-03-21T19:37:36.364Z,6.20
2023-03-21T19:40:05.520Z,6.13
2023-03-21T19:42:32.616Z,4.57
2023-03-21T19:44:59.627Z,5.87
2023-03-21T19:47:27.151Z,5.87
2023-03-21T19:50:40.810Z,5.60
2023-03-21T19:52:42.272Z,7.60
2023-03-21T19:55:11.005Z,8.80
2023-03-21T19:57:37.950Z,4.40
2023-03-21T20:00:05.444Z,5.87
2023-03-21T20:02:36.121Z,7.43
2023-03-21T20:05:05.126Z,5.70
2023-03-21T20:07:33.077Z,5.93
2023-03-21T20:10:00.370Z,5.27
2023-03-21T20:12:27.685Z,6.03
2023-03-21T20:15:07.065Z,7.60
2023-03-21T20:17:39.066Z,5.97
2023-03-21T20:20:09.450Z,6.33
2023-03-21T20:23:05.251Z,6.13
2023-03-21T20:25:23.352Z,6.60
2023-03-21T20:28:09.315Z,9.00
2023-03-21T20:30:37.677Z,8.80
2023-03-21T20:33:05.333Z,6.00
2023-03-21T20:36:23.028Z,12.53
2023-03-21T20:38:20.679Z,7.63
2023-03-21T20:40:48.128Z,9.17
2023-03-21T20:44:13.968Z,6.30
2023-03-21T20:46:05.879Z,5.90
2023-03-21T20:48:33.441Z,5.77
2023-03-21T20:52:07.498Z,12.13
2023-03-21T20:53:58.655Z,8.77
2023-03-21T20:56:25.585Z,6.53
2023-03-21T20:59:08.615Z,8.00
2023-03-21T21:01:43.264Z,8.70
2023-03-21T21:04:10.392Z,7.83
2023-03-21T21:06:37.268Z,7.60
2023-03-21T21:09:04.458Z,6.53
2023-03-21T21:14:19.049Z,12.67
2023-03-21T21:16:48.134Z,8.27
2023-03-21T21:19:18.825Z,6.40
2023-03-21T21:21:46.184Z,5.40
2023-03-21T21:24:14.621Z,8.80
2023-03-21T21:26:48.645Z,5.23
2023-03-21T21:29:17.078Z,6.77
2023-03-21T21:31:46.807Z,6.67
2023-03-21T21:34:14.086Z,7.30
2023-03-21T21:36:41.124Z,10.67
2023-03-21T21:39:08.208Z,6.23
2023-03-21T21:41:35.533Z,6.20
2023-03-21T21:44:02.432Z,7.20
2023-03-21T21:46:29.493Z,6.20
2023-03-21T21:48:57.132Z,13.33
2023-03-21T21:51:26.268Z,7.33
2023-03-21T21:53:55.934Z,9.83
2023-03-21T21:56:24.360Z,7.10
2023-03-21T21:58:54.540Z,6.17
2023-03-21T22:01:21.484Z,6.77
2023-03-21T22:03:48.802Z,6.50
2023-03-21T22:06:16.953Z,6.77
2023-03-21T22:08:47.073Z,7.67
2023-03-21T22:11:14.989Z,6.40
2023-03-21T22:13:43.601Z,6.37
2023-03-21T22:16:11.377Z,11.33
2023-03-21T22:18:38.688Z,6.40
2023-03-21T22:21:06.877Z,6.43
2023-03-21T22:23:33.833Z,6.60
2023-03-21T22:26:01.102Z,7.03
2023-03-21T22:28:28.190Z,4.40
2023-03-21T22:30:56.464Z,6.70
2023-03-21T22:33:23.342Z,8.63
2023-03-21T22:35:51.797Z,8.67
2023-03-21T22:38:24.337Z,5.13
2023-03-21T22:40:58.671Z,5.47
2023-03-21T22:43:25.974Z,5.20
2023-03-21T22:45:53.574Z,5.60
2023-03-21T22:48:21.513Z,5.30
2023-03-21T22:50:48.757Z,5.33
2023-03-21T22:53:15.606Z,5.23
2023-03-21T22:55:42.472Z,6.87
2023-03-21T22:58:09.320Z,8.70
2023-03-21T23:00:36.426Z,9.20
2023-03-21T23:03:03.376Z,5.40
2023-03-21T23:05:30.285Z,9.93
2023-03-21T23:07:57.326Z,5.67
2023-03-21T23:10:25.514Z,9.87
2023-03-21T23:12:52.394Z,5.90
2023-03-21T23:15:19.359Z,6.97
2023-03-21T23:17:46.629Z,11.27
2023-03-21T23:20:13.563Z,5.40
2023-03-21T23:22:40.673Z,6.63
2023-03-21T23:25:08.233Z,7.53
2023-03-21T23:27:38.254Z,5.53
2023-03-21T23:30:06.639Z,6.83
2023-03-21T23:32:33.727Z,7.30
2023-03-21T23:35:00.715Z,6.07
2023-03-21T23:37:30.122Z,5.67
2023-03-21T23:39:56.965Z,6.03
2023-03-21T23:42:25.193Z,7.60
2023-03-21T23:44:52.058Z,8.53
2023-03-21T23:47:18.925Z,7.93
2023-03-21T23:49:47.277Z,6.80
2023-03-21T23:52:14.803Z,9.83
2023-03-21T23:54:41.767Z,5.57
2023-03-21T23:57:08.618Z,6.07
2023-03-21T23:59:35.656Z,6.03
